Time;durP1;ratioP1;P1;durP2;ratioP2;P2;SDS_P1;SDS_P2;PMS_P1;PMS_P2;Temp;Humidity;BMP_temperature;BMP_pressure;BME280_temperature;BME280_humidity;BME280_pressure;Samples;Min_cycle;Max_cycle;Signal;HPM_P1;HPM_P2
2021/12/10 00:02:33;;;;;;;48.38;17.90;;;;;;;;;;4983517;28;20028;-81
2021/12/10 00:05:00;;;;;;;40.40;12.73;;;;;;;;;;4982666;28;20065;-81
2021/12/10 00:07:27;;;;;;;46.22;21.38;;;;;;;;;;4981882;28;20049;-81
2021/12/10 00:09:55;;;;;;;46.60;18.45;;;;;;;;;;4980270;28;20026;-81
2021/12/10 00:12:23;;;;;;;55.55;21.90;;;;;;;;;;4964596;28;20046;-81
2021/12/10 00:14:49;;;;;;;60.00;21.38;;;;;;;;;;4966263;28;20049;-81
2021/12/10 00:17:16;;;;;;;41.45;18.65;;;;;;;;;;4965180;28;20034;-81
2021/12/10 00:19:47;;;;;;;52.75;17.77;;;;;;;;;;4980238;28;20383;-81
2021/12/10 00:22:15;;;;;;;43.28;18.45;;;;;;;;;;4981843;28;20041;-81
2021/12/10 00:24:43;;;;;;;53.40;20.15;;;;;;;;;;4963757;28;20478;-81
2021/12/10 00:27:09;;;;;;;56.63;20.35;;;;;;;;;;4979479;28;20588;-81
2021/12/10 00:29:38;;;;;;;47.15;18.90;;;;;;;;;;4980172;28;20509;-81
2021/12/10 00:32:07;;;;;;;46.83;20.70;;;;;;;;;;4966351;28;20134;-81
2021/12/10 00:34:38;;;;;;;50.60;20.92;;;;;;;;;;4965185;28;20030;-81
2021/12/10 00:37:06;;;;;;;43.50;16.23;;;;;;;;;;4976759;28;20058;-80
2021/12/10 00:39:34;;;;;;;40.50;15.77;;;;;;;;;;4967072;28;20479;-81
2021/12/10 00:42:01;;;;;;;24.55;10.55;;;;;;;;;;4961774;28;20268;-81
2021/12/10 00:44:27;;;;;;;45.65;15.45;;;;;;;;;;4984611;28;20066;-81
2021/12/10 00:46:54;;;;;;;40.63;15.40;;;;;;;;;;4981341;28;20081;-81
2021/12/10 00:49:20;;;;;;;55.00;17.75;;;;;;;;;;4982178;28;20030;-81
2021/12/10 00:51:46;;;;;;;43.95;17.42;;;;;;;;;;4979043;28;20117;-81
2021/12/10 00:54:12;;;;;;;37.80;12.77;;;;;;;;;;4979404;28;20545;-81
2021/12/10 00:56:41;;;;;;;42.80;16.73;;;;;;;;;;4983157;28;20026;-81
2021/12/10 00:59:07;;;;;;;45.40;16.20;;;;;;;;;;4982506;28;20026;-81
2021/12/10 01:01:33;;;;;;;42.97;17.45;;;;;;;;;;4978380;28;20080;-82
2021/12/10 01:04:03;;;;;;;28.65;9.25;;;;;;;;;;4983870;28;20109;-81
2021/12/10 01:06:29;;;;;;;49.17;16.58;;;;;;;;;;4979047;28;20061;-81
2021/12/10 01:08:59;;;;;;;44.20;16.23;;;;;;;;;;4980688;28;20038;-81
2021/12/10 01:11:29;;;;;;;31.63;11.68;;;;;;;;;;4961469;28;20033;-81
2021/12/10 01:14:01;;;;;;;39.60;14.93;;;;;;;;;;4985932;28;20447;-80
2021/12/10 01:27:01;;;;;;;42.40;16.83;;;;;;;;;;4984937;28;20552;-81
2021/12/10 01:29:38;;;;;;;33.05;13.20;;;;;;;;;;4984170;28;20501;-81
2021/12/10 01:32:06;;;;;;;32.80;15.23;;;;;;;;;;4985565;28;20530;-81
2021/12/10 01:34:32;;;;;;;34.67;14.35;;;;;;;;;;4984472;28;20113;-81
2021/12/10 01:37:05;;;;;;;34.28;12.65;;;;;;;;;;4987237;28;20588;-81
2021/12/10 01:39:39;;;;;;;36.33;15.07;;;;;;;;;;4983420;28;20508;-81
2021/12/10 01:42:16;;;;;;;39.17;15.73;;;;;;;;;;4987411;28;20033;-81
2021/12/10 01:44:45;;;;;;;40.92;15.77;;;;;;;;;;4982980;28;20487;-81
2021/12/10 01:47:12;;;;;;;43.38;16.45;;;;;;;;;;4983671;28;20084;-80
2021/12/10 01:49:38;;;;;;;44.97;16.33;;;;;;;;;;4978259;28;20042;-81
2021/12/10 01:52:05;;;;;;;39.67;14.63;;;;;;;;;;4980286;28;20354;-81
2021/12/10 01:54:35;;;;;;;36.13;15.77;;;;;;;;;;4984214;28;20365;-81
2021/12/10 01:57:02;;;;;;;42.88;14.82;;;;;;;;;;4963056;28;20023;-81
2021/12/10 01:59:29;;;;;;;41.22;14.82;;;;;;;;;;4967005;28;20418;-81
2021/12/10 02:01:58;;;;;;;36.22;12.90;;;;;;;;;;4983108;28;20046;-81
2021/12/10 02:04:25;;;;;;;30.50;11.90;;;;;;;;;;4981727;28;20027;-81
2021/12/10 02:06:52;;;;;;;34.88;14.65;;;;;;;;;;4958652;28;20042;-81
2021/12/10 02:09:18;;;;;;;37.78;14.98;;;;;;;;;;4988893;28;20113;-81
2021/12/10 02:11:44;;;;;;;35.88;14.35;;;;;;;;;;4984081;28;20100;-81
2021/12/10 02:14:11;;;;;;;38.75;15.32;;;;;;;;;;4986843;28;20034;-81
2021/12/10 02:16:38;;;;;;;33.40;15.02;;;;;;;;;;4983812;28;20534;-81
2021/12/10 02:19:05;;;;;;;33.55;13.95;;;;;;;;;;4986291;28;20061;-81
2021/12/10 02:21:34;;;;;;;39.92;14.98;;;;;;;;;;4965707;28;20031;-81
2021/12/10 02:24:01;;;;;;;34.40;14.18;;;;;;;;;;4969274;28;20034;-81
2021/12/10 02:26:32;;;;;;;30.00;14.55;;;;;;;;;;4965414;28;20398;-81
2021/12/10 02:28:58;;;;;;;34.90;14.70;;;;;;;;;;4986113;28;20026;-81
2021/12/10 02:31:33;;;;;;;40.75;15.38;;;;;;;;;;4967886;28;20141;-81
2021/12/10 02:34:01;;;;;;;38.80;15.98;;;;;;;;;;4983023;28;20089;-81
2021/12/10 02:36:33;;;;;;;39.20;15.75;;;;;;;;;;4967142;28;20049;-81
2021/12/10 02:39:06;;;;;;;43.97;15.02;;;;;;;;;;4963640;28;20559;-80
2021/12/10 02:41:33;;;;;;;41.05;15.55;;;;;;;;;;4949640;28;20027;-81
2021/12/10 02:43:59;;;;;;;44.08;15.63;;;;;;;;;;4944618;28;20118;-81
2021/12/10 02:46:26;;;;;;;43.13;15.82;;;;;;;;;;4970684;28;20376;-80
2021/12/10 02:48:52;;;;;;;48.28;15.88;;;;;;;;;;4966883;28;20494;-80
2021/12/10 02:51:18;;;;;;;33.08;15.13;;;;;;;;;;4968641;28;20038;-81
2021/12/10 02:53:45;;;;;;;36.30;13.57;;;;;;;;;;4981019;28;20675;-81
2021/12/10 02:56:13;;;;;;;42.13;13.85;;;;;;;;;;4966256;28;20030;-80
2021/12/10 02:58:39;;;;;;;38.70;14.90;;;;;;;;;;4982142;28;20035;-81
2021/12/10 03:01:08;;;;;;;32.05;15.30;;;;;;;;;;4984735;28;20117;-80
2021/12/10 03:03:36;;;;;;;39.67;16.67;;;;;;;;;;4983608;28;20026;-81
2021/12/10 03:06:08;;;;;;;39.40;16.17;;;;;;;;;;4966364;28;20032;-80
2021/12/10 03:08:35;;;;;;;42.80;15.63;;;;;;;;;;4964238;28;20211;-80
2021/12/10 03:11:01;;;;;;;40.22;15.25;;;;;;;;;;4985569;28;20038;-81
2021/12/10 03:13:28;;;;;;;40.00;13.60;;;;;;;;;;4966195;28;20042;-80
2021/12/10 03:15:54;;;;;;;29.08;12.25;;;;;;;;;;4964168;28;20556;-81
2021/12/10 03:18:21;;;;;;;28.48;11.80;;;;;;;;;;4968617;28;20026;-81
2021/12/10 03:20:53;;;;;;;25.45;10.82;;;;;;;;;;4960865;28;20037;-81
2021/12/10 03:23:19;;;;;;;28.85;12.70;;;;;;;;;;4981562;28;20045;-81
2021/12/10 03:25:46;;;;;;;32.65;12.70;;;;;;;;;;4967052;28;20776;-81
2021/12/10 03:28:12;;;;;;;28.95;10.63;;;;;;;;;;4985185;28;20045;-80
2021/12/10 03:30:41;;;;;;;31.48;10.55;;;;;;;;;;4968551;28;20030;-81
2021/12/10 03:33:07;;;;;;;26.20;9.95;;;;;;;;;;4965973;28;20034;-81
2021/12/10 03:35:40;;;;;;;28.52;11.73;;;;;;;;;;4982729;28;20432;-81
2021/12/10 03:38:13;;;;;;;37.17;11.65;;;;;;;;;;4981599;28;20303;-81
2021/12/10 03:40:40;;;;;;;40.35;13.25;;;;;;;;;;4982610;28;20628;-81
2021/12/10 03:43:06;;;;;;;33.25;11.45;;;;;;;;;;4983669;28;20125;-81
2021/12/10 03:45:35;;;;;;;25.30;7.68;;;;;;;;;;4984772;28;20022;-81
2021/12/10 03:48:03;;;;;;;26.83;11.70;;;;;;;;;;4984504;28;20030;-81
2021/12/10 03:50:31;;;;;;;23.45;8.23;;;;;;;;;;4978489;28;20405;-81
2021/12/10 03:52:58;;;;;;;23.48;9.88;;;;;;;;;;4979653;28;20022;-80
2021/12/10 03:55:24;;;;;;;27.95;11.57;;;;;;;;;;4963820;28;20033;-81
2021/12/10 03:57:52;;;;;;;27.63;10.65;;;;;;;;;;4982363;28;20037;-81
2021/12/10 04:00:19;;;;;;;28.42;8.50;;;;;;;;;;4983043;28;20374;-81
2021/12/10 04:02:45;;;;;;;28.70;11.55;;;;;;;;;;4983391;28;20035;-81
2021/12/10 04:05:12;;;;;;;31.85;12.80;;;;;;;;;;4966325;28;20714;-81
2021/12/10 04:07:38;;;;;;;34.92;11.90;;;;;;;;;;4978233;28;20030;-81
2021/12/10 04:10:06;;;;;;;40.45;13.30;;;;;;;;;;4984153;28;20038;-81
2021/12/10 04:12:32;;;;;;;27.92;10.77;;;;;;;;;;4979716;28;20160;-81
2021/12/10 04:14:59;;;;;;;20.08;8.75;;;;;;;;;;4981626;28;20566;-80
2021/12/10 04:17:26;;;;;;;18.88;8.02;;;;;;;;;;4978511;28;20096;-81
2021/12/10 04:19:52;;;;;;;20.48;8.55;;;;;;;;;;4962133;28;20552;-81
2021/12/10 04:22:19;;;;;;;27.20;11.38;;;;;;;;;;4979693;28;20080;-81
2021/12/10 04:24:46;;;;;;;32.88;12.30;;;;;;;;;;4969131;28;20034;-81
2021/12/10 04:27:13;;;;;;;30.00;11.82;;;;;;;;;;4961104;28;20448;-81
2021/12/10 04:29:39;;;;;;;23.45;9.02;;;;;;;;;;4985112;28;20034;-81
2021/12/10 04:32:07;;;;;;;27.15;13.85;;;;;;;;;;4964516;28;20040;-80
2021/12/10 04:34:34;;;;;;;14.10;6.93;;;;;;;;;;4967237;28;20078;-80
2021/12/10 04:37:01;;;;;;;33.63;15.13;;;;;;;;;;4966741;28;20364;-81
2021/12/10 04:39:29;;;;;;;15.10;7.40;;;;;;;;;;4966869;28;20034;-81
2021/12/10 04:41:55;;;;;;;16.63;8.07;;;;;;;;;;4983821;28;20054;-81
2021/12/10 04:44:21;;;;;;;35.25;16.27;;;;;;;;;;4964537;28;20035;-81
2021/12/10 04:46:47;;;;;;;32.40;14.95;;;;;;;;;;4967514;28;20045;-81
2021/12/10 04:49:15;;;;;;;38.38;16.20;;;;;;;;;;4970117;28;20054;-81
2021/12/10 04:51:43;;;;;;;37.58;17.05;;;;;;;;;;4981364;28;20042;-81
2021/12/10 04:54:10;;;;;;;45.95;18.60;;;;;;;;;;4968819;28;20066;-81
2021/12/10 04:56:37;;;;;;;42.05;18.45;;;;;;;;;;4961919;28;20034;-81
2021/12/10 04:59:04;;;;;;;32.40;15.25;;;;;;;;;;4966586;28;20031;-81
2021/12/10 05:01:30;;;;;;;43.40;15.05;;;;;;;;;;4969424;28;20027;-81
2021/12/10 05:03:57;;;;;;;38.13;15.57;;;;;;;;;;4988777;28;20053;-81
2021/12/10 05:06:23;;;;;;;44.05;18.33;;;;;;;;;;4981586;28;20861;-81
2021/12/10 05:08:50;;;;;;;41.05;17.60;;;;;;;;;;4984256;28;20045;-81
2021/12/10 05:11:17;;;;;;;42.67;16.35;;;;;;;;;;4965701;28;20482;-81
2021/12/10 05:13:47;;;;;;;44.20;17.38;;;;;;;;;;4985163;28;20101;-81
2021/12/10 05:16:13;;;;;;;41.08;16.88;;;;;;;;;;4969666;28;20034;-81
2021/12/10 05:18:43;;;;;;;42.72;19.77;;;;;;;;;;4985810;28;20470;-81
2021/12/10 05:21:11;;;;;;;39.90;17.77;;;;;;;;;;4985354;28;20038;-80
2021/12/10 05:23:37;;;;;;;37.55;17.35;;;;;;;;;;4982639;28;20038;-81
2021/12/10 05:26:04;;;;;;;48.88;18.88;;;;;;;;;;4987510;28;20026;-81
2021/12/10 05:28:30;;;;;;;41.70;18.00;;;;;;;;;;4984987;28;20553;-81
2021/12/10 05:30:56;;;;;;;41.67;17.25;;;;;;;;;;4985481;28;20044;-81
2021/12/10 05:33:24;;;;;;;39.92;17.20;;;;;;;;;;4968059;28;20034;-81
2021/12/10 05:35:50;;;;;;;40.20;16.85;;;;;;;;;;4982694;28;20121;-82
2021/12/10 05:38:17;;;;;;;42.28;15.80;;;;;;;;;;4967030;28;20100;-83
2021/12/10 05:40:44;;;;;;;36.55;15.80;;;;;;;;;;4973165;28;20667;-83
2021/12/10 05:43:10;;;;;;;34.92;16.10;;;;;;;;;;4986294;28;20026;-82
2021/12/10 05:45:36;;;;;;;46.65;18.70;;;;;;;;;;4986256;28;20022;-82
2021/12/10 05:48:03;;;;;;;40.40;17.52;;;;;;;;;;4965772;28;20058;-82
2021/12/10 05:50:29;;;;;;;45.60;16.10;;;;;;;;;;4968971;28;20071;-83
2021/12/10 05:52:56;;;;;;;38.72;16.90;;;;;;;;;;4964480;28;20767;-83
2021/12/10 05:55:22;;;;;;;48.45;17.60;;;;;;;;;;4986883;28;20054;-82
2021/12/10 05:57:49;;;;;;;47.55;18.38;;;;;;;;;;4965543;28;20564;-82
2021/12/10 06:00:17;;;;;;;46.55;18.75;;;;;;;;;;4969623;28;20026;-82
2021/12/10 06:02:43;;;;;;;44.88;18.30;;;;;;;;;;4964723;28;20030;-82
2021/12/10 06:05:09;;;;;;;46.80;18.30;;;;;;;;;;4985644;28;20026;-82
2021/12/10 06:07:36;;;;;;;34.63;16.10;;;;;;;;;;4981360;28;20029;-83
2021/12/10 06:10:02;;;;;;;42.05;18.63;;;;;;;;;;4986813;28;20037;-82
2021/12/10 06:12:28;;;;;;;39.45;17.33;;;;;;;;;;4966583;28;20069;-83
2021/12/10 06:14:54;;;;;;;42.83;17.25;;;;;;;;;;4972089;28;20030;-82
2021/12/10 06:17:20;;;;;;;46.75;17.67;;;;;;;;;;4983366;28;20091;-82
2021/12/10 06:19:46;;;;;;;43.47;16.38;;;;;;;;;;4985816;28;20494;-82
2021/12/10 06:22:12;;;;;;;47.67;18.48;;;;;;;;;;4983508;28;20085;-82
2021/12/10 06:24:38;;;;;;;48.88;17.52;;;;;;;;;;4982167;28;20055;-83
2021/12/10 06:27:05;;;;;;;38.42;16.73;;;;;;;;;;4987339;28;20502;-81
2021/12/10 06:29:31;;;;;;;35.70;14.40;;;;;;;;;;4965900;28;20026;-83
2021/12/10 06:31:57;;;;;;;43.67;16.50;;;;;;;;;;4983604;28;20034;-82
2021/12/10 06:34:23;;;;;;;49.78;18.60;;;;;;;;;;4983846;28;20138;-82
2021/12/10 06:36:50;;;;;;;31.90;14.15;;;;;;;;;;4984535;28;20117;-83
2021/12/10 06:39:20;;;;;;;44.13;18.30;;;;;;;;;;4967689;28;20037;-83
2021/12/10 06:41:50;;;;;;;52.78;15.75;;;;;;;;;;4983048;28;20042;-82
2021/12/10 06:44:16;;;;;;;30.48;13.00;;;;;;;;;;4977754;28;20452;-83
2021/12/10 06:46:44;;;;;;;28.25;13.23;;;;;;;;;;4964841;28;20041;-83
2021/12/10 06:49:10;;;;;;;31.08;14.52;;;;;;;;;;4967588;28;20030;-83
2021/12/10 06:51:43;;;;;;;27.17;12.63;;;;;;;;;;4966883;28;20038;-83
2021/12/10 06:54:09;;;;;;;39.45;15.85;;;;;;;;;;4980406;28;20548;-82
2021/12/10 06:56:36;;;;;;;33.00;15.20;;;;;;;;;;4982755;28;20030;-83
2021/12/10 06:59:04;;;;;;;40.25;16.08;;;;;;;;;;4977951;28;20022;-83
2021/12/10 07:01:33;;;;;;;35.50;14.93;;;;;;;;;;4965822;28;20437;-82
2021/12/10 07:03:59;;;;;;;33.03;13.77;;;;;;;;;;4964292;28;20022;-83
2021/12/10 07:06:27;;;;;;;37.50;14.13;;;;;;;;;;4964284;28;20526;-83
2021/12/10 07:08:54;;;;;;;30.83;14.30;;;;;;;;;;4979779;28;20586;-83
2021/12/10 07:11:21;;;;;;;28.00;13.48;;;;;;;;;;4981360;28;20493;-83
2021/12/10 07:13:50;;;;;;;29.17;13.13;;;;;;;;;;4981350;28;20081;-83
2021/12/10 07:16:17;;;;;;;33.17;12.75;;;;;;;;;;4984324;28;20042;-83
2021/12/10 07:18:44;;;;;;;32.50;14.48;;;;;;;;;;4985740;28;20031;-83
2021/12/10 07:21:11;;;;;;;28.80;15.50;;;;;;;;;;4986311;28;20045;-83
2021/12/10 07:23:37;;;;;;;28.20;12.90;;;;;;;;;;4983814;28;20030;-83
2021/12/10 07:26:14;;;;;;;29.05;13.85;;;;;;;;;;4979178;28;20024;-81
2021/12/10 07:28:40;;;;;;;29.48;11.80;;;;;;;;;;4985034;28;20422;-82
2021/12/10 07:31:08;;;;;;;37.28;13.05;;;;;;;;;;4967295;28;20125;-83
2021/12/10 07:33:34;;;;;;;27.30;12.23;;;;;;;;;;4969201;28;20026;-83
2021/12/10 07:36:01;;;;;;;33.90;13.05;;;;;;;;;;4982054;28;20027;-83
2021/12/10 07:38:27;;;;;;;26.05;11.88;;;;;;;;;;4979957;28;20046;-81
2021/12/10 07:40:54;;;;;;;30.35;13.00;;;;;;;;;;4963860;28;20426;-82
2021/12/10 07:43:21;;;;;;;28.98;12.52;;;;;;;;;;4964813;28;20416;-82
2021/12/10 07:45:49;;;;;;;22.65;10.63;;;;;;;;;;4963580;28;20037;-81
2021/12/10 07:48:18;;;;;;;22.77;11.02;;;;;;;;;;4980289;28;20026;-83
2021/12/10 07:50:50;;;;;;;26.90;10.65;;;;;;;;;;4978129;28;20491;-83
2021/12/10 07:53:19;;;;;;;25.20;11.45;;;;;;;;;;4965210;28;20066;-82
2021/12/10 07:55:46;;;;;;;22.90;11.88;;;;;;;;;;4980227;28;20478;-82
2021/12/10 07:58:13;;;;;;;28.60;11.20;;;;;;;;;;4964782;28;20030;-82
2021/12/10 08:00:43;;;;;;;31.58;11.95;;;;;;;;;;4981257;28;20030;-82
2021/12/10 08:03:10;;;;;;;28.00;9.70;;;;;;;;;;4969356;28;20055;-82
2021/12/10 08:05:36;;;;;;;28.60;11.05;;;;;;;;;;4981810;28;20776;-82
2021/12/10 08:08:05;;;;;;;28.88;11.38;;;;;;;;;;4982683;28;21619;-82
2021/12/10 08:10:31;;;;;;;30.10;10.82;;;;;;;;;;4967303;28;20030;-82
2021/12/10 08:12:57;;;;;;;28.95;10.73;;;;;;;;;;4980092;28;20031;-82
2021/12/10 08:15:23;;;;;;;27.38;11.20;;;;;;;;;;4968888;28;20771;-83
2021/12/10 08:17:49;;;;;;;22.00;10.35;;;;;;;;;;4980661;28;20502;-83
2021/12/10 08:20:24;;;;;;;22.35;9.23;;;;;;;;;;4964944;28;20058;-82
2021/12/10 08:22:50;;;;;;;19.88;9.13;;;;;;;;;;4977047;28;20026;-82
2021/12/10 08:25:18;;;;;;;18.10;8.52;;;;;;;;;;4981896;28;20053;-83
2021/12/10 08:27:45;;;;;;;19.15;9.45;;;;;;;;;;4983436;28;20034;-82
2021/12/10 08:30:12;;;;;;;28.60;9.30;;;;;;;;;;4978239;28;20065;-82
2021/12/10 08:32:39;;;;;;;21.95;10.02;;;;;;;;;;4979991;28;20201;-82
2021/12/10 08:35:07;;;;;;;18.40;9.45;;;;;;;;;;4963080;28;20031;-82
2021/12/10 08:37:34;;;;;;;21.98;9.20;;;;;;;;;;4959464;28;20080;-83
2021/12/10 08:40:00;;;;;;;25.73;9.52;;;;;;;;;;4979877;28;20030;-82
2021/12/10 08:42:27;;;;;;;28.52;9.77;;;;;;;;;;4982830;28;20109;-83
2021/12/10 08:44:53;;;;;;;20.70;9.50;;;;;;;;;;4965131;28;20022;-83
2021/12/10 08:47:19;;;;;;;19.73;9.25;;;;;;;;;;4979274;28;20034;-81
2021/12/10 08:49:45;;;;;;;21.35;9.13;;;;;;;;;;4964425;28;20406;-83
2021/12/10 08:52:14;;;;;;;33.97;9.02;;;;;;;;;;4978534;28;20038;-84
2021/12/10 08:54:41;;;;;;;22.67;9.52;;;;;;;;;;4962801;28;20039;-82
2021/12/10 08:57:08;;;;;;;15.00;8.10;;;;;;;;;;4980779;28;20023;-82
2021/12/10 08:59:36;;;;;;;27.90;8.80;;;;;;;;;;4981882;28;20049;-82
2021/12/10 09:02:04;;;;;;;18.70;8.63;;;;;;;;;;4962542;28;20057;-83
2021/12/10 09:04:31;;;;;;;22.05;8.43;;;;;;;;;;4965284;28;20125;-83
2021/12/10 09:07:02;;;;;;;20.05;8.25;;;;;;;;;;4960326;28;20116;-83
2021/12/10 09:09:30;;;;;;;17.55;8.32;;;;;;;;;;4978877;28;20105;-83
2021/12/10 09:11:58;;;;;;;20.52;7.47;;;;;;;;;;4964160;28;20403;-83
2021/12/10 09:14:28;;;;;;;20.65;7.75;;;;;;;;;;4980599;28;20057;-83
2021/12/10 09:16:56;;;;;;;17.70;8.35;;;;;;;;;;4968892;28;20025;-82
2021/12/10 09:19:22;;;;;;;17.67;6.95;;;;;;;;;;4963886;28;21680;-82
2021/12/10 09:21:51;;;;;;;20.75;8.40;;;;;;;;;;4959581;28;20049;-83
2021/12/10 09:24:20;;;;;;;16.90;7.47;;;;;;;;;;4958587;28;20041;-83
2021/12/10 09:26:56;;;;;;;20.42;9.30;;;;;;;;;;4965988;28;20031;-83
2021/12/10 09:29:22;;;;;;;;;;;;;;;;;;4960229;28;20027;-83
2021/12/10 09:31:48;;;;;;;21.58;8.18;;;;;;;;;;4979931;28;19921;-82
2021/12/10 09:34:21;;;;;;;16.67;7.93;;;;;;;;;;4978813;28;20696;-83
2021/12/10 09:36:49;;;;;;;20.98;8.57;;;;;;;;;;4981101;28;20030;-82
2021/12/10 09:39:17;;;;;;;25.40;7.70;;;;;;;;;;4965138;28;20052;-83
2021/12/10 09:41:44;;;;;;;17.25;8.60;;;;;;;;;;4984435;28;20088;-83
2021/12/10 09:44:10;;;;;;;16.65;7.90;;;;;;;;;;4981520;28;20104;-83
2021/12/10 09:46:37;;;;;;;21.27;7.93;;;;;;;;;;4980556;28;20026;-83
2021/12/10 09:49:05;;;;;;;28.88;7.65;;;;;;;;;;4964829;28;20129;-83
2021/12/10 09:51:33;;;;;;;12.73;7.25;;;;;;;;;;4965430;28;20034;-82
2021/12/10 09:54:12;;;;;;;14.50;7.25;;;;;;;;;;4984917;28;20061;-83
2021/12/10 09:56:49;;;;;;;22.08;7.82;;;;;;;;;;4982180;28;20133;-83
2021/12/10 09:59:15;;;;;;;16.02;8.35;;;;;;;;;;4969300;28;20481;-83
2021/12/10 10:01:44;;;;;;;15.82;7.70;;;;;;;;;;4965685;28;20023;-82
2021/12/10 10:04:17;;;;;;;15.95;7.93;;;;;;;;;;4966392;28;20538;-83
2021/12/10 10:07:05;;;;;;;13.55;6.45;;;;;;;;;;4981232;28;20661;-83
2021/12/10 10:09:31;;;;;;;13.93;6.95;;;;;;;;;;4969699;28;20038;-82
2021/12/10 10:12:00;;;;;;;12.90;6.47;;;;;;;;;;4963813;28;20046;-83
2021/12/10 10:14:27;;;;;;;15.07;6.78;;;;;;;;;;4968886;28;20031;-83
2021/12/10 10:16:53;;;;;;;13.00;7.32;;;;;;;;;;4962348;28;20406;-82
2021/12/10 10:19:20;;;;;;;14.45;7.22;;;;;;;;;;4961604;28;20050;-82
2021/12/10 10:21:53;;;;;;;12.65;6.63;;;;;;;;;;4964748;28;20719;-83
2021/12/10 10:24:20;;;;;;;13.45;7.20;;;;;;;;;;4980515;28;20379;-82
2021/12/10 10:26:53;;;;;;;11.85;7.18;;;;;;;;;;4962916;28;20034;-82
2021/12/10 10:29:20;;;;;;;20.00;6.93;;;;;;;;;;4969003;28;20941;-83
2021/12/10 10:31:58;;;;;;;13.57;7.28;;;;;;;;;;4983570;28;20041;-83
2021/12/10 10:34:25;;;;;;;10.75;7.10;;;;;;;;;;4969220;28;20042;-83
2021/12/10 10:36:51;;;;;;;14.98;7.32;;;;;;;;;;4970127;28;20110;-83
2021/12/10 10:39:19;;;;;;;12.07;8.07;;;;;;;;;;4968590;28;20599;-83
2021/12/10 10:41:49;;;;;;;15.05;6.90;;;;;;;;;;4987051;28;20026;-84
2021/12/10 10:44:17;;;;;;;14.00;7.47;;;;;;;;;;4984173;28;20025;-83
2021/12/10 10:46:44;;;;;;;13.20;6.93;;;;;;;;;;4968804;28;20046;-82
2021/12/10 10:49:29;;;;;;;13.23;7.10;;;;;;;;;;4982755;28;20053;-83
2021/12/10 10:51:56;;;;;;;12.35;7.90;;;;;;;;;;4962715;28;20080;-83
2021/12/10 10:54:30;;;;;;;11.18;7.47;;;;;;;;;;4966151;28;20023;-83
2021/12/10 10:56:56;;;;;;;9.95;7.78;;;;;;;;;;4983117;28;20034;-82
2021/12/10 10:59:25;;;;;;;9.45;7.35;;;;;;;;;;4984989;28;20037;-83
2021/12/10 11:01:59;;;;;;;9.95;7.22;;;;;;;;;;4966279;28;20030;-83
2021/12/10 11:04:35;;;;;;;9.93;7.90;;;;;;;;;;4966112;28;20026;-83
2021/12/10 11:07:07;;;;;;;11.38;7.40;;;;;;;;;;4964100;28;20034;-82
2021/12/10 11:09:34;;;;;;;11.32;8.23;;;;;;;;;;4969539;28;20030;-83
2021/12/10 11:12:03;;;;;;;11.80;8.45;;;;;;;;;;4983113;28;20027;-83
2021/12/10 11:14:29;;;;;;;13.15;8.90;;;;;;;;;;4988604;28;20108;-82
2021/12/10 11:16:57;;;;;;;14.77;8.82;;;;;;;;;;4985860;28;20501;-83
2021/12/10 11:22:13;;;;;;;11.40;7.20;;;;;;;;;;4963787;28;20375;-81
2021/12/10 11:24:46;;;;;;;9.73;5.63;;;;;;;;;;4968370;28;20073;-82
2021/12/10 11:27:21;;;;;;;11.57;5.78;;;;;;;;;;4959762;28;20502;-82
2021/12/10 11:29:52;;;;;;;10.82;5.03;;;;;;;;;;4962951;28;20033;-82
2021/12/10 11:32:24;;;;;;;9.90;4.97;;;;;;;;;;4983203;28;20039;-82
2021/12/10 11:34:52;;;;;;;12.27;4.80;;;;;;;;;;4983495;28;20058;-82
2021/12/10 11:37:39;;;;;;;8.35;4.82;;;;;;;;;;4968324;28;20061;-83
2021/12/10 11:40:06;;;;;;;7.40;4.70;;;;;;;;;;4965179;28;20038;-82
2021/12/10 11:42:42;;;;;;;8.65;4.10;;;;;;;;;;4964589;28;20490;-82
2021/12/10 11:45:31;;;;;;;9.20;5.70;;;;;;;;;;4964356;28;20888;-82
2021/12/10 11:48:06;;;;;;;10.55;5.30;;;;;;;;;;4969291;28;20033;-82
2021/12/10 11:50:33;;;;;;;11.97;6.17;;;;;;;;;;4961184;28;20041;-82
2021/12/10 11:53:11;;;;;;;13.73;4.68;;;;;;;;;;4968674;28;21086;-82
2021/12/10 11:55:37;;;;;;;7.80;4.55;;;;;;;;;;4984595;28;20081;-82
2021/12/10 11:58:05;;;;;;;8.13;4.57;;;;;;;;;;4981020;28;20026;-81
2021/12/10 12:00:34;;;;;;;8.38;4.63;;;;;;;;;;4985135;28;20102;-82
2021/12/10 12:03:03;;;;;;;6.03;3.88;;;;;;;;;;4963236;28;20077;-81
2021/12/10 12:05:31;;;;;;;7.95;4.80;;;;;;;;;;4963521;28;20174;-82
2021/12/10 12:08:00;;;;;;;9.18;5.72;;;;;;;;;;4984256;28;20037;-82
2021/12/10 12:10:32;;;;;;;11.00;7.00;;;;;;;;;;4964420;28;20081;-83
2021/12/10 12:13:02;;;;;;;9.50;4.68;;;;;;;;;;4980497;28;20030;-81
2021/12/10 12:15:29;;;;;;;11.57;5.40;;;;;;;;;;4967023;28;20092;-82
2021/12/10 12:18:16;;;;;;;10.68;5.88;;;;;;;;;;4983365;28;20022;-82
2021/12/10 12:20:48;;;;;;;10.27;4.78;;;;;;;;;;4967372;28;20030;-82
2021/12/10 12:26:19;;;;;;;8.02;4.45;;;;;;;;;;4982059;28;20080;-83
2021/12/10 12:28:47;;;;;;;9.10;4.32;;;;;;;;;;4965886;28;20487;-82
2021/12/10 12:31:16;;;;;;;10.30;4.47;;;;;;;;;;4982971;28;20092;-82
2021/12/10 12:34:36;;;;;;;11.98;5.40;;;;;;;;;;4968308;28;20775;-81
2021/12/10 12:37:03;;;;;;;7.85;5.18;;;;;;;;;;4938971;28;20046;-82
2021/12/10 12:39:32;;;;;;;10.30;4.63;;;;;;;;;;4967387;28;20070;-83
2021/12/10 12:42:01;;;;;;;6.80;4.65;;;;;;;;;;4981569;28;20026;-82
2021/12/10 12:44:30;;;;;;;10.20;4.70;;;;;;;;;;4967289;28;20568;-82
2021/12/10 12:47:08;;;;;;;10.55;4.75;;;;;;;;;;4981840;28;20478;-82
2021/12/10 12:49:37;;;;;;;6.75;4.45;;;;;;;;;;4981925;28;20041;-81
2021/12/10 12:52:12;;;;;;;10.82;4.70;;;;;;;;;;4964920;28;20085;-82
2021/12/10 12:54:41;;;;;;;5.90;4.50;;;;;;;;;;4985885;28;20066;-82
2021/12/10 12:57:08;;;;;;;12.70;5.03;;;;;;;;;;4981032;28;20038;-82
2021/12/10 12:59:37;;;;;;;9.93;5.28;;;;;;;;;;4967696;28;20552;-82
2021/12/10 13:02:26;;;;;;;8.45;4.60;;;;;;;;;;4986107;28;20037;-82
2021/12/10 13:04:52;;;;;;;11.43;5.25;;;;;;;;;;4961730;28;20115;-83
2021/12/10 13:07:21;;;;;;;13.70;5.30;;;;;;;;;;4964830;28;20120;-82
2021/12/10 13:09:54;;;;;;;8.98;4.70;;;;;;;;;;4968101;28;20086;-83
2021/12/10 13:12:54;;;;;;;11.88;4.85;;;;;;;;;;4967778;28;20034;-82
2021/12/10 13:15:11;;;;;;;10.70;5.15;;;;;;;;;;4985814;28;20050;-82
2021/12/10 13:17:41;;;;;;;9.93;4.28;;;;;;;;;;4986851;28;20422;-82
2021/12/10 13:20:10;;;;;;;9.95;4.72;;;;;;;;;;4980024;28;20030;-83
2021/12/10 13:22:36;;;;;;;8.05;4.03;;;;;;;;;;4988175;28;20030;-83
2021/12/10 13:25:06;;;;;;;9.63;4.47;;;;;;;;;;4985872;28;20538;-81
2021/12/10 13:27:34;;;;;;;7.63;4.18;;;;;;;;;;4966537;28;20041;-83
2021/12/10 13:30:00;;;;;;;15.38;4.18;;;;;;;;;;4969577;28;20153;-82
2021/12/10 13:32:26;;;;;;;11.18;4.88;;;;;;;;;;4972915;28;20030;-82
2021/12/10 13:34:53;;;;;;;16.50;5.07;;;;;;;;;;4969514;28;20398;-81
2021/12/10 13:37:21;;;;;;;9.20;5.15;;;;;;;;;;4966361;28;20039;-81
2021/12/10 13:39:52;;;;;;;11.82;5.75;;;;;;;;;;4984105;28;20050;-82
2021/12/10 13:42:18;;;;;;;10.55;5.13;;;;;;;;;;4985250;28;20049;-81
2021/12/10 13:44:50;;;;;;;11.68;4.82;;;;;;;;;;4971237;28;20026;-82
2021/12/10 13:47:26;;;;;;;13.88;5.57;;;;;;;;;;4985131;28;20105;-82
2021/12/10 13:50:03;;;;;;;14.35;5.65;;;;;;;;;;4965914;28;20209;-82
2021/12/10 13:52:38;;;;;;;14.48;5.95;;;;;;;;;;4981143;28;20053;-82
2021/12/10 13:55:09;;;;;;;18.95;6.38;;;;;;;;;;4985874;28;20088;-82
2021/12/10 13:57:37;;;;;;;11.60;5.95;;;;;;;;;;4961801;28;20034;-82
2021/12/10 14:00:04;;;;;;;12.20;6.20;;;;;;;;;;4986811;28;20042;-83
2021/12/10 14:02:39;;;;;;;17.65;6.72;;;;;;;;;;4985941;28;20406;-82
2021/12/10 14:05:23;;;;;;;13.05;6.22;;;;;;;;;;4983154;28;20034;-81
2021/12/10 14:07:55;;;;;;;12.75;6.80;;;;;;;;;;4983842;28;21573;-82
2021/12/10 14:10:30;;;;;;;12.25;5.05;;;;;;;;;;4961863;28;20038;-81
2021/12/10 14:12:57;;;;;;;11.45;6.10;;;;;;;;;;4963952;28;20454;-81
2021/12/10 14:15:23;;;;;;;13.77;6.30;;;;;;;;;;4983134;28;20061;-82
2021/12/10 14:17:59;;;;;;;10.05;5.93;;;;;;;;;;4980559;28;20038;-82
2021/12/10 14:20:25;;;;;;;14.25;7.15;;;;;;;;;;4984388;28;20046;-82
2021/12/10 14:22:53;;;;;;;11.73;6.03;;;;;;;;;;4962545;28;20502;-82
2021/12/10 14:25:28;;;;;;;11.18;6.15;;;;;;;;;;4967675;28;20739;-81
2021/12/10 14:27:57;;;;;;;13.40;6.55;;;;;;;;;;4967718;28;20034;-82
2021/12/10 14:30:23;;;;;;;11.35;6.28;;;;;;;;;;4984564;28;20137;-82
2021/12/10 14:33:04;;;;;;;12.55;6.15;;;;;;;;;;4983438;28;20103;-82
2021/12/10 14:35:38;;;;;;;12.23;6.43;;;;;;;;;;4983389;28;20505;-82
2021/12/10 14:38:06;;;;;;;14.80;6.57;;;;;;;;;;4964786;28;20042;-82
2021/12/10 14:40:38;;;;;;;14.80;6.38;;;;;;;;;;4985949;28;20529;-82
2021/12/10 14:43:04;;;;;;;11.93;6.25;;;;;;;;;;4964493;28;20506;-82
2021/12/10 14:45:30;;;;;;;14.38;6.53;;;;;;;;;;4984993;28;20065;-83
2021/12/10 14:48:10;;;;;;;14.30;6.03;;;;;;;;;;4965155;28;20117;-83
2021/12/10 14:50:36;;;;;;;17.45;7.10;;;;;;;;;;4983703;28;20597;-81